Time;durP1;ratioP1;P1;durP2;ratioP2;P2;SDS_P1;SDS_P2;PMS_P1;PMS_P2;Temp;Humidity;BMP_temperature;BMP_pressure;BME280_temperature;BME280_humidity;BME280_pressure;Samples;Min_cycle;Max_cycle;Signal;HPM_P1;HPM_P2
2022/08/17 00:01:07;;;;;;;12.82;6.65;;;;;;;21.65;86.13;98443.63;5114396;27;20036;-91
2022/08/17 00:03:36;;;;;;;11.07;6.20;;;;;;;21.66;86.19;98448.06;5113711;28;20039;-91
2022/08/17 00:06:06;;;;;;;;;;;;;;;21.61;86.44;98439.44;5120929;27;20039;-90
2022/08/17 00:08:36;;;;;;;18.58;6.70;;;;;;;21.67;85.53;98430.84;5115714;27;19965;-92
2022/08/17 00:11:04;;;;;;;10.38;6.50;;;;;;;21.58;86.34;98440.56;5113937;27;20067;-91
2022/08/17 00:13:34;;;;;;;10.88;6.18;;;;;;;21.50;86.15;98416.78;5115879;27;20726;-91
2022/08/17 00:16:04;;;;;;;14.10;6.97;;;;;;;21.50;87.18;98438.41;5119699;27;20464;-90
2022/08/17 00:18:32;;;;;;;12.55;6.00;;;;;;;21.56;87.28;98447.91;5116173;27;20058;-92
2022/08/17 00:20:59;;;;;;;14.15;6.30;;;;;;;21.51;88.13;98433.88;5115051;27;20071;-89
2022/08/17 00:23:27;;;;;;;12.40;6.18;;;;;;;21.46;88.58;98431.53;5120162;27;20131;-92
2022/08/17 00:25:53;;;;;;;13.13;5.97;;;;;;;21.47;89.40;98432.38;5114048;27;20039;-91
2022/08/17 00:28:19;;;;;;;13.85;6.55;;;;;;;21.54;89.87;98448.03;5118384;27;20128;-90
2022/08/17 00:30:48;;;;;;;11.77;6.30;;;;;;;21.41;90.30;98439.13;5110605;27;20039;-91
2022/08/17 00:33:17;;;;;;;13.18;6.00;;;;;;;21.46;91.61;98461.28;5115999;27;20036;-91
2022/08/17 00:35:45;;;;;;;12.15;7.00;;;;;;;21.47;91.90;98454.00;5118524;27;20044;-92
2022/08/17 00:38:12;;;;;;;13.75;6.53;;;;;;;21.45;92.03;98445.19;5115766;28;20399;-91
2022/08/17 00:40:42;;;;;;;16.23;6.50;;;;;;;21.46;92.11;98447.75;5115893;28;20071;-91
2022/08/17 00:43:16;;;;;;;13.50;6.30;;;;;;;21.50;93.22;98443.84;5113666;28;20044;-92
2022/08/17 00:45:43;;;;;;;12.02;6.53;;;;;;;21.43;93.92;98420.94;5111589;28;20036;-90
2022/08/17 00:48:10;;;;;;;12.85;6.40;;;;;;;21.54;94.83;98439.91;5116403;28;20416;-91
2022/08/17 00:50:37;;;;;;;10.93;6.57;;;;;;;21.53;94.16;98437.31;5118424;28;20039;-92
2022/08/17 00:53:04;;;;;;;14.73;6.20;;;;;;;21.41;94.38;98416.63;5118021;28;20039;-91
2022/08/17 00:55:31;;;;;;;14.07;6.20;;;;;;;21.39;94.51;98422.13;5112220;28;20059;-91
2022/08/17 00:58:02;;;;;;;13.60;6.25;;;;;;;21.44;94.94;98438.88;5117643;28;20058;-90
2022/08/17 01:00:32;;;;;;;13.90;6.70;;;;;;;21.32;95.83;98424.44;5114347;28;20059;-91
2022/08/17 01:03:05;;;;;;;16.13;6.25;;;;;;;21.44;94.91;98444.28;5117239;28;20055;-91
2022/08/17 01:05:32;;;;;;;18.42;7.10;;;;;;;21.36;95.47;98437.72;5114991;28;20052;-90
2022/08/17 01:08:00;;;;;;;16.17;7.10;;;;;;;21.39;94.48;98441.06;5115319;28;20070;-92
2022/08/17 01:10:31;;;;;;;15.15;6.28;;;;;;;21.26;94.97;98441.13;5114675;28;20036;-91
2022/08/17 01:13:01;;;;;;;12.90;6.53;;;;;;;21.31;95.68;98454.31;5114202;28;20036;-92
2022/08/17 01:15:29;;;;;;;16.15;6.82;;;;;;;21.28;96.47;98458.09;5120413;28;20513;-91
2022/08/17 01:17:55;;;;;;;14.88;6.80;;;;;;;21.16;96.60;98440.09;5114757;28;20039;-91
2022/08/17 01:20:21;;;;;;;19.20;7.80;;;;;;;21.39;95.74;98462.69;5114891;28;20123;-90
2022/08/17 01:22:48;;;;;;;14.60;6.65;;;;;;;21.32;96.26;98442.53;5118533;27;20040;-90
2022/08/17 01:25:15;;;;;;;12.65;6.07;;;;;;;21.31;97.01;98449.75;5116368;28;20044;-91
2022/08/17 01:27:42;;;;;;;17.48;6.88;;;;;;;21.21;97.43;98448.75;5121685;27;20118;-91
2022/08/17 01:30:10;;;;;;;15.80;7.85;;;;;;;21.19;98.31;98457.94;5121851;27;20050;-92
2022/08/17 01:32:36;;;;;;;11.52;6.53;;;;;;;21.12;98.38;98454.81;5123667;27;20047;-91
2022/08/17 01:35:04;;;;;;;17.63;6.78;;;;;;;21.18;98.18;98467.88;5120298;27;20032;-90
2022/08/17 01:37:33;;;;;;;14.88;7.35;;;;;;;21.20;97.85;98452.41;5119863;27;20508;-90
2022/08/17 01:40:05;;;;;;;16.90;7.80;;;;;;;21.24;98.69;98453.91;5078422;28;20056;-91
2022/08/17 01:42:36;;;;;;;19.63;7.78;;;;;;;21.28;99.29;98450.00;5078026;28;20131;-90
2022/08/17 01:45:06;;;;;;;13.20;7.60;;;;;;;21.23;98.93;98454.03;5079449;28;20111;-92
2022/08/17 01:47:32;;;;;;;17.92;7.28;;;;;;;21.18;98.53;98456.22;5076655;28;20032;-91
2022/08/17 01:50:04;;;;;;;17.13;7.75;;;;;;;21.08;97.61;98443.41;5080011;28;20056;-90
2022/08/17 01:52:30;;;;;;;8.57;6.40;;;;;;;21.20;96.47;98446.16;5077723;28;20094;-90
2022/08/17 01:54:57;;;;;;;15.43;7.03;;;;;;;21.16;96.53;98448.22;5076910;28;20040;-91
2022/08/17 01:57:24;;;;;;;14.38;7.07;;;;;;;21.16;96.07;98450.91;5076106;28;20048;-91
2022/08/17 01:59:50;;;;;;;11.65;6.72;;;;;;;21.14;94.80;98442.06;5075051;28;20050;-92
2022/08/17 02:02:16;;;;;;;15.50;6.90;;;;;;;21.11;95.41;98455.81;5080867;28;20555;-91
2022/08/17 02:04:42;;;;;;;12.25;6.72;;;;;;;21.08;96.03;98456.91;5080927;28;20044;-91
2022/08/17 02:07:08;;;;;;;15.32;7.32;;;;;;;21.02;96.81;98448.41;5077839;28;20055;-92
2022/08/17 02:09:34;;;;;;;14.32;6.97;;;;;;;20.92;96.95;98448.22;5081515;28;20028;-92
2022/08/17 02:12:02;;;;;;;14.05;7.05;;;;;;;20.97;96.68;98467.69;5078831;28;20029;-92
2022/08/17 02:14:29;;;;;;;13.75;7.10;;;;;;;20.96;96.17;98449.72;5084450;28;20044;-91
2022/08/17 02:16:55;;;;;;;12.75;6.30;;;;;;;21.12;96.34;98462.94;5079342;28;20043;-90
2022/08/17 02:19:21;;;;;;;13.85;6.93;;;;;;;21.02;96.66;98445.72;5079087;28;20033;-92
2022/08/17 02:21:49;;;;;;;18.60;7.03;;;;;;;21.03;98.50;98453.69;5078700;28;20045;-91
2022/08/17 02:24:19;;;;;;;16.23;7.40;;;;;;;21.05;98.40;98462.53;5085276;28;20036;-92
2022/08/17 02:26:46;;;;;;;17.08;7.10;;;;;;;21.05;98.24;98461.69;5074251;28;20630;-92
2022/08/17 02:29:13;;;;;;;16.45;6.80;;;;;;;21.12;98.21;98474.66;5074102;28;20119;-91
2022/08/17 02:31:42;;;;;;;11.57;7.67;;;;;;;21.15;98.41;98475.41;5078420;28;20032;-91
2022/08/17 02:34:08;;;;;;;14.13;6.97;;;;;;;21.10;98.71;98468.47;5078240;28;20047;-92
2022/08/17 02:36:35;;;;;;;19.17;6.93;;;;;;;21.06;98.11;98458.88;5076044;28;20059;-91
2022/08/17 02:39:02;;;;;;;13.43;6.50;;;;;;;21.12;97.99;98461.13;5100172;27;20051;-91
2022/08/17 02:41:28;;;;;;;10.80;6.50;;;;;;;21.18;97.98;98462.47;5119801;27;20054;-91
2022/08/17 02:43:54;;;;;;;16.30;7.70;;;;;;;21.15;98.19;98451.06;5121608;27;20040;-91
2022/08/17 02:46:21;;;;;;;12.63;6.88;;;;;;;21.08;98.85;98438.00;5118714;27;20123;-91
2022/08/17 02:48:48;;;;;;;14.25;7.32;;;;;;;21.16;98.87;98437.41;5116279;27;20044;-91
2022/08/17 02:51:14;;;;;;;12.73;6.88;;;;;;;21.24;97.10;98436.84;5118351;27;20502;-90
2022/08/17 02:53:40;;;;;;;14.43;6.85;;;;;;;21.28;95.10;98428.38;5114850;27;20035;-91
2022/08/17 02:56:06;;;;;;;16.00;6.20;;;;;;;21.43;93.36;98436.31;5117048;27;20434;-92
2022/08/17 02:58:32;;;;;;;9.88;6.40;;;;;;;21.36;92.57;98424.19;5118544;27;20035;-91
2022/08/17 03:00:59;;;;;;;14.20;7.20;;;;;;;21.29;92.05;98410.28;5118779;27;20093;-91
2022/08/17 03:03:25;;;;;;;14.30;6.95;;;;;;;21.40;91.61;98425.69;5112386;27;20047;-90
2022/08/17 03:05:52;;;;;;;12.68;7.15;;;;;;;21.36;91.64;98426.91;5118846;27;20035;-90
2022/08/17 03:08:19;;;;;;;10.85;6.85;;;;;;;21.32;91.93;98429.00;5118302;27;20044;-91
2022/08/17 03:10:45;;;;;;;14.77;6.47;;;;;;;21.37;92.73;98437.63;5112760;27;20147;-92
2022/08/17 03:13:13;;;;;;;15.82;7.50;;;;;;;21.30;93.78;98428.25;5121986;27;20069;-90
2022/08/17 03:15:43;;;;;;;13.60;6.93;;;;;;;21.34;94.44;98432.44;5114360;27;20042;-91
2022/08/17 03:18:10;;;;;;;11.13;6.72;;;;;;;21.32;93.49;98423.59;5119922;27;20092;-89
2022/08/17 03:20:36;;;;;;;13.85;6.97;;;;;;;21.37;93.89;98434.91;5115378;27;20405;-91
2022/08/17 03:23:04;;;;;;;14.18;7.20;;;;;;;21.33;94.31;98428.84;5115776;27;20048;-91
2022/08/17 03:25:33;;;;;;;11.65;6.70;;;;;;;21.38;94.00;98435.75;5115612;27;20040;-90
2022/08/17 03:27:59;;;;;;;15.57;7.20;;;;;;;21.23;95.26;98421.56;5117221;27;20789;-92
2022/08/17 03:30:27;;;;;;;12.75;6.43;;;;;;;21.22;95.66;98430.69;5120767;27;20378;-90
2022/08/17 03:32:54;;;;;;;13.52;6.88;;;;;;;21.12;96.10;98425.09;5116664;27;20078;-92
2022/08/17 03:35:24;;;;;;;12.85;6.57;;;;;;;21.11;95.88;98435.03;5117032;27;20046;-91
2022/08/17 03:37:50;;;;;;;14.15;7.03;;;;;;;21.07;95.36;98441.66;5116515;27;20149;-91
2022/08/17 03:40:19;;;;;;;14.52;7.57;;;;;;;21.01;94.27;98430.44;5118734;27;20479;-91
2022/08/17 03:42:45;;;;;;;16.63;7.78;;;;;;;20.90;94.24;98420.44;5114409;27;20089;-91
2022/08/17 03:45:14;;;;;;;12.57;7.40;;;;;;;20.84;93.71;98429.00;5119053;27;20093;-90
2022/08/17 03:56:44;;;;;;;13.80;7.53;;;;;;;20.76;98.13;98450.34;5125561;27;20130;-90
2022/08/17 03:59:13;;;;;;;13.75;7.30;;;;;;;20.87;97.40;98445.00;5124791;28;20415;-90
2022/08/17 04:01:39;;;;;;;14.85;7.40;;;;;;;20.81;97.29;98429.25;5120296;27;20135;-90
2022/08/17 04:04:05;;;;;;;13.55;7.45;;;;;;;20.90;97.47;98447.47;5122813;28;20492;-89
2022/08/17 04:06:31;;;;;;;14.07;7.97;;;;;;;20.80;97.26;98424.84;5119090;28;20051;-90
2022/08/17 04:08:57;;;;;;;13.55;7.13;;;;;;;20.83;96.20;98438.09;5123686;28;20108;-92
2022/08/17 04:11:22;;;;;;;13.30;7.68;;;;;;;20.87;95.18;98462.09;5125696;28;20040;-92
2022/08/17 04:13:50;;;;;;;12.57;7.15;;;;;;;20.74;94.80;98449.59;5126420;27;20043;-92
2022/08/17 04:16:16;;;;;;;10.85;7.05;;;;;;;20.64;93.74;98442.16;5123037;27;20084;-93
2022/08/17 04:18:42;;;;;;;14.40;7.13;;;;;;;20.63;94.26;98442.28;5124038;27;20043;-91
2022/08/17 04:21:08;;;;;;;15.30;6.75;;;;;;;20.56;95.88;98449.06;5122556;27;20070;-93
2022/08/17 04:23:35;;;;;;;15.77;8.13;;;;;;;20.57;96.65;98448.09;5115641;28;20062;-91
2022/08/17 04:26:01;;;;;;;16.13;8.15;;;;;;;20.60;100.00;98458.69;5125211;27;20039;-92
2022/08/17 04:28:28;;;;;;;12.07;7.72;;;;;;;20.60;100.00;98448.78;5118803;28;20039;-92
2022/08/17 04:30:56;;;;;;;17.40;8.48;;;;;;;20.68;100.00;98457.16;5121720;28;20043;-93
2022/08/17 04:33:23;;;;;;;21.67;8.80;;;;;;;20.78;100.00;98449.25;5122981;28;20043;-92
2022/08/17 04:35:52;;;;;;;17.70;7.32;;;;;;;20.90;98.65;98460.97;5124887;27;20143;-93
2022/08/17 04:38:20;;;;;;;12.02;7.00;;;;;;;20.89;96.54;98465.53;5124516;27;20043;-92
2022/08/17 04:43:47;;;;;;;11.30;7.22;;;;;;;20.88;94.05;98474.63;5123445;27;20363;-92
2022/08/17 04:46:16;;;;;;;12.35;6.78;;;;;;;20.90;93.60;98472.66;5125773;28;20043;-92
2022/08/17 04:48:44;;;;;;;13.75;7.10;;;;;;;20.95;92.48;98485.84;5122531;27;20447;-91
2022/08/17 04:51:13;;;;;;;11.02;7.82;;;;;;;20.99;92.36;98470.25;5126416;27;20046;-92
2022/08/17 04:53:40;;;;;;;13.75;6.75;;;;;;;21.11;91.39;98481.00;5122582;28;20039;-90
2022/08/17 04:56:06;;;;;;;11.75;6.45;;;;;;;21.24;90.27;98485.50;5119119;28;20044;-92
2022/08/17 04:58:33;;;;;;;10.13;6.97;;;;;;;21.34;89.29;98490.09;5127161;28;20042;-92
2022/08/17 05:01:00;;;;;;;14.95;6.90;;;;;;;21.38;88.86;98488.00;5121383;27;20039;-91
2022/08/17 05:03:26;;;;;;;13.48;6.80;;;;;;;21.55;88.85;98508.41;5119139;27;20145;-91
2022/08/17 05:05:52;;;;;;;14.00;7.30;;;;;;;21.62;88.34;98503.38;5122496;28;20036;-90
2022/08/17 05:08:19;;;;;;;11.73;6.72;;;;;;;21.72;88.14;98517.94;5122560;28;20035;-90
2022/08/17 05:10:46;;;;;;;14.05;7.20;;;;;;;21.84;87.79;98517.00;5122008;28;20085;-93
2022/08/17 05:13:15;;;;;;;15.10;6.63;;;;;;;21.88;88.72;98521.22;5122433;28;20065;-90
2022/08/17 05:15:43;;;;;;;13.60;7.03;;;;;;;21.99;88.49;98531.22;5123577;27;20048;-89
2022/08/17 05:18:10;;;;;;;15.00;8.25;;;;;;;22.08;88.14;98530.47;5122290;27;20039;-93
2022/08/17 05:20:38;;;;;;;13.07;7.38;;;;;;;22.20;88.32;98534.06;5116591;28;20063;-93
2022/08/17 05:23:12;;;;;;;15.20;7.38;;;;;;;22.32;87.41;98516.88;5122847;27;20597;-91
2022/08/17 05:25:42;;;;;;;15.27;7.32;;;;;;;22.54;86.42;98516.03;5120736;28;20362;-91
2022/08/17 05:28:08;;;;;;;13.73;6.95;;;;;;;22.71;86.68;98524.66;5123132;28;20542;-92
2022/08/17 05:30:34;;;;;;;12.60;6.80;;;;;;;22.79;86.26;98502.31;5123875;27;20043;-89
2022/08/17 05:33:05;;;;;;;12.95;6.85;;;;;;;23.11;83.37;98524.97;5124312;28;20028;-92
2022/08/17 05:35:34;;;;;;;11.43;6.50;;;;;;;23.14;80.11;98505.75;5118901;28;20512;-93
2022/08/17 05:38:01;;;;;;;13.15;6.78;;;;;;;23.39;78.96;98519.97;5123950;28;20044;-92
2022/08/17 05:40:27;;;;;;;12.55;6.43;;;;;;;23.40;77.89;98519.00;5121518;28;20051;-90
2022/08/17 05:43:05;;;;;;;12.43;6.38;;;;;;;23.33;77.97;98526.78;5119826;28;20511;-89
2022/08/17 05:45:31;;;;;;;12.70;6.57;;;;;;;23.22;78.20;98520.53;5118169;28;20069;-89
2022/08/17 05:47:58;;;;;;;14.73;6.50;;;;;;;23.11;77.65;98507.84;5122827;27;20043;-89
2022/08/17 05:50:30;;;;;;;14.75;7.55;;;;;;;23.09;78.64;98521.53;5121696;28;20531;-90
2022/08/17 05:53:04;;;;;;;14.13;7.30;;;;;;;23.15;78.17;98539.16;5119546;28;20066;-90
2022/08/17 05:55:38;;;;;;;12.20;6.80;;;;;;;23.24;78.37;98532.09;5108450;28;20047;-90
2022/08/17 05:58:14;;;;;;;12.90;6.65;;;;;;;23.34;78.11;98530.38;5108508;28;20036;-90
2022/08/17 06:00:56;;;;;;;15.45;6.95;;;;;;;23.52;77.81;98536.94;5108973;28;20113;-90
2022/08/17 06:03:41;;;;;;;12.77;6.65;;;;;;;23.62;76.15;98534.34;5110050;28;20043;-93
2022/08/17 06:06:29;;;;;;;11.30;6.05;;;;;;;23.71;75.50;98538.13;5105226;28;20047;-90
2022/08/17 06:09:12;;;;;;;12.52;6.18;;;;;;;23.70;75.00;98512.84;5109435;28;20036;-90
2022/08/17 06:11:46;;;;;;;13.68;6.68;;;;;;;23.94;74.17;98523.47;5105718;28;20062;-91
2022/08/17 06:14:29;;;;;;;9.35;6.63;;;;;;;24.37;72.37;98518.84;5108776;27;20117;-91
2022/08/17 06:17:01;;;;;;;11.27;6.28;;;;;;;24.62;71.65;98523.03;5109466;27;20032;-92
2022/08/17 06:19:32;;;;;;;13.70;7.03;;;;;;;24.75;71.30;98520.94;5111526;27;20031;-90
2022/08/17 06:22:01;;;;;;;11.93;6.28;;;;;;;24.88;70.52;98506.25;5106042;28;20035;-91
2022/08/17 06:24:35;;;;;;;14.25;6.32;;;;;;;25.29;69.19;98531.56;5112689;28;20092;-92
2022/08/17 06:27:09;;;;;;;11.45;6.18;;;;;;;25.33;68.64;98522.09;5106739;28;20047;-91
2022/08/17 06:29:43;;;;;;;16.75;6.78;;;;;;;25.21;70.22;98524.94;5111076;28;20043;-95
2022/08/17 06:32:12;;;;;;;13.48;6.47;;;;;;;25.24;69.81;98533.84;5106978;28;20055;-91
2022/08/17 06:34:38;;;;;;;;;;;;;;;25.36;68.74;98533.56;5114574;28;20052;-91
2022/08/17 06:37:11;;;;;;;11.90;6.15;;;;;;;24.97;71.24;98538.88;5104624;28;19926;-91
2022/08/17 06:39:49;;;;;;;15.85;6.55;;;;;;;24.78;71.43;98538.81;5109347;28;20100;-91
2022/08/17 06:42:28;;;;;;;15.05;6.85;;;;;;;24.82;71.09;98539.41;5106732;28;20105;-91
2022/08/17 06:45:01;;;;;;;11.90;6.70;;;;;;;24.80;72.73;98534.97;5110941;27;20443;-91
2022/08/17 06:47:33;;;;;;;15.98;6.57;;;;;;;25.00;71.66;98537.75;5109268;28;20044;-92
2022/08/17 06:50:13;;;;;;;16.98;7.13;;;;;;;25.18;69.08;98536.09;5109750;28;20032;-91
2022/08/17 06:52:50;;;;;;;15.50;6.70;;;;;;;25.46;67.99;98539.03;5108467;28;20038;-92
2022/08/17 06:55:22;;;;;;;14.95;6.93;;;;;;;25.81;67.26;98551.25;5109739;28;20042;-91
2022/08/17 06:57:52;;;;;;;17.83;7.20;;;;;;;25.92;67.76;98550.28;5104136;28;20039;-91
2022/08/17 07:00:21;;;;;;;14.85;7.50;;;;;;;25.88;67.37;98522.44;5109713;28;20035;-92
2022/08/17 07:02:54;;;;;;;16.48;7.70;;;;;;;26.14;66.16;98543.66;5108349;28;20130;-92
2022/08/17 07:05:23;;;;;;;16.40;7.70;;;;;;;26.31;65.77;98531.13;5106747;28;20063;-92
2022/08/17 07:08:01;;;;;;;15.63;7.93;;;;;;;26.16;66.49;98523.41;5111464;28;20040;-91
2022/08/17 07:10:30;;;;;;;;;;;;;;;26.07;67.51;98528.84;5107906;28;20525;-91
2022/08/17 07:13:07;;;;;;;18.35;8.23;;;;;;;25.51;70.03;98519.56;5106240;28;19920;-91
2022/08/17 07:15:41;;;;;;;17.90;8.02;;;;;;;25.74;69.03;98503.78;5107586;28;20059;-93
2022/08/17 07:18:07;;;;;;;15.88;8.60;;;;;;;25.98;69.38;98506.97;5107688;28;20040;-92
2022/08/17 07:20:34;;;;;;;17.90;8.05;;;;;;;26.05;68.91;98485.44;5108992;28;20434;-92
2022/08/17 07:23:05;;;;;;;19.63;8.40;;;;;;;25.73;71.41;98507.53;5110334;28;20028;-91
2022/08/17 07:25:33;;;;;;;17.30;7.32;;;;;;;25.65;71.22;98482.84;5106400;28;20047;-91
2022/08/17 07:28:02;;;;;;;14.07;8.02;;;;;;;25.85;71.97;98506.38;5106520;28;20047;-91
2022/08/17 07:30:29;;;;;;;;;;;;;;;26.05;70.87;98506.38;5106528;28;20105;-92
2022/08/17 07:32:57;;;;;;;23.88;8.20;;;;;;;26.25;69.82;98499.00;5106311;28;19942;-93
2022/08/17 07:35:38;;;;;;;16.27;7.00;;;;;;;26.42;68.78;98493.63;5109277;28;20059;-92
2022/08/17 07:38:10;;;;;;;18.08;7.75;;;;;;;26.00;70.19;98499.50;5103294;28;20051;-89
2022/08/17 07:40:39;;;;;;;22.05;7.93;;;;;;;26.03;70.10;98496.47;5110058;28;20118;-93
2022/08/17 07:43:23;;;;;;;19.88;7.90;;;;;;;25.72;70.81;98500.34;5103658;28;20066;-91
2022/08/17 07:49:32;;;;;;;18.80;8.15;;;;;;;26.09;70.45;98492.31;5126748;27;20370;-92
2022/08/17 07:52:02;;;;;;;17.52;7.72;;;;;;;26.33;68.99;98494.53;5123990;28;20032;-94
2022/08/17 07:54:32;;;;;;;18.17;8.32;;;;;;;26.26;69.10;98492.53;5123686;28;20039;-93
2022/08/17 07:57:00;;;;;;;16.08;7.50;;;;;;;26.59;67.62;98486.59;5120085;27;20650;-93
2022/08/17 07:59:28;;;;;;;15.95;7.60;;;;;;;26.94;66.51;98481.38;5127576;27;20036;-93
2022/08/17 08:02:15;;;;;;;18.42;7.20;;;;;;;26.96;66.15;98458.38;5123695;28;20052;-92
2022/08/17 08:04:45;;;;;;;16.20;7.63;;;;;;;27.14;64.59;98450.22;5120966;28;20400;-92
2022/08/17 08:07:24;;;;;;;22.65;8.05;;;;;;;26.69;67.08;98450.22;5119747;27;20092;-91
2022/08/17 08:10:00;;;;;;;16.60;7.45;;;;;;;27.09;65.25;98455.28;5123816;27;20106;-90
2022/08/17 08:12:33;;;;;;;21.40;8.18;;;;;;;26.94;65.73;98437.72;5128077;28;20047;-91
2022/08/17 08:15:01;;;;;;;21.58;7.30;;;;;;;26.89;66.35;98453.69;5128186;27;20039;-92
2022/08/17 08:17:31;;;;;;;20.30;7.18;;;;;;;27.29;64.61;98452.44;5124038;27;20090;-92
2022/08/17 08:20:01;;;;;;;15.88;7.40;;;;;;;27.68;63.98;98452.13;5128619;27;20516;-93
2022/08/17 08:22:39;;;;;;;20.00;7.50;;;;;;;27.53;63.51;98449.09;5125089;27;21382;-92
2022/08/17 08:25:23;;;;;;;18.75;7.70;;;;;;;27.64;62.14;98446.09;5126272;27;20074;-93
2022/08/17 08:28:00;;;;;;;18.23;7.07;;;;;;;27.53;60.97;98433.56;5131199;27;20117;-92
2022/08/17 08:30:27;;;;;;;16.75;6.63;;;;;;;27.92;61.52;98441.41;5122662;27;20038;-92
2022/08/17 08:33:16;;;;;;;22.63;7.10;;;;;;;28.18;60.02;98440.56;5126224;27;20039;-93
2022/08/17 08:35:52;;;;;;;12.60;6.53;;;;;;;28.43;58.59;98427.84;5123000;28;20035;-94
2022/08/17 08:38:29;;;;;;;16.25;6.68;;;;;;;28.75;58.40;98434.53;5127216;28;20044;-93
2022/08/17 08:41:16;;;;;;;15.02;6.32;;;;;;;28.89;55.24;98422.97;5125653;27;20043;-92
2022/08/17 08:43:53;;;;;;;20.20;6.32;;;;;;;29.18;55.58;98427.16;5120894;28;20038;-92
2022/08/17 08:46:28;;;;;;;20.00;6.85;;;;;;;29.32;51.90;98431.09;5122721;28;20035;-94
2022/08/17 08:49:32;;;;;;;14.80;6.63;;;;;;;29.31;52.92;98434.88;5120558;28;20043;-93
2022/08/17 08:52:01;;;;;;;17.10;6.20;;;;;;;29.20;53.66;98441.53;5062434;28;20041;-94
2022/08/17 08:54:39;;;;;;;16.92;6.53;;;;;;;29.28;51.23;98442.41;5066010;28;20408;-92
2022/08/17 08:57:16;;;;;;;18.13;6.07;;;;;;;29.34;51.76;98450.97;5067031;28;20557;-93
2022/08/17 08:59:58;;;;;;;19.20;6.53;;;;;;;29.41;51.96;98430.09;5055742;28;20299;-93
2022/08/17 09:02:45;;;;;;;16.65;6.07;;;;;;;29.72;50.53;98438.53;5055920;28;20041;-92
2022/08/17 09:05:21;;;;;;;20.42;6.85;;;;;;;29.75;48.23;98432.69;5052235;28;20041;-92
2022/08/17 09:07:57;;;;;;;16.55;5.75;;;;;;;29.96;49.75;98445.88;5053254;28;20045;-93
2022/08/17 09:10:26;;;;;;;16.30;6.00;;;;;;;29.66;47.77;98441.91;5051503;28;20064;-92
2022/08/17 09:13:00;;;;;;;17.77;6.45;;;;;;;29.73;49.12;98448.44;5052201;28;20040;-91
2022/08/17 09:15:30;;;;;;;21.17;6.70;;;;;;;29.55;47.33;98439.53;5053029;28;20120;-93
2022/08/17 09:18:03;;;;;;;21.63;6.63;;;;;;;29.39;46.20;98443.13;5052238;28;20506;-92
2022/08/17 09:20:35;;;;;;;14.80;6.07;;;;;;;29.58;47.10;98436.44;5052231;28;20064;-92
2022/08/17 09:23:08;;;;;;;18.88;6.35;;;;;;;29.86;46.18;98429.63;5053125;28;20071;-92
2022/08/17 09:25:44;;;;;;;20.42;6.47;;;;;;;30.24;45.11;98438.09;5052074;28;20036;-93
2022/08/17 09:28:18;;;;;;;20.20;6.07;;;;;;;30.52;44.43;98440.47;5097806;27;20496;-92
2022/08/17 09:30:48;;;;;;;22.00;6.40;;;;;;;30.63;44.52;98436.47;5111572;28;20036;-93
2022/08/17 09:33:18;;;;;;;16.80;5.90;;;;;;;30.77;44.70;98443.09;5112912;28;20040;-93
2022/08/17 09:35:49;;;;;;;13.57;6.10;;;;;;;30.90;44.34;98430.56;5110147;27;20047;-91
2022/08/17 09:38:22;;;;;;;15.70;6.50;;;;;;;31.04;42.38;98422.59;5120828;27;20035;-94
2022/08/17 09:40:53;;;;;;;17.58;6.43;;;;;;;31.18;42.23;98424.53;5118040;27;20489;-94
2022/08/17 09:43:29;;;;;;;13.93;5.85;;;;;;;31.14;41.20;98428.69;5107772;28;20035;-93
2022/08/17 09:46:01;;;;;;;19.33;6.47;;;;;;;30.79;42.20;98411.69;5110157;28;20024;-92
2022/08/17 09:48:32;;;;;;;18.60;6.03;;;;;;;30.99;42.02;98446.97;5103459;28;20071;-93
2022/08/17 09:51:03;;;;;;;19.85;5.97;;;;;;;30.81;41.96;98439.81;5106822;28;20048;-93
2022/08/17 09:53:30;;;;;;;19.73;6.65;;;;;;;30.11;43.33;98443.28;5106056;27;20134;-92
2022/08/17 09:56:15;;;;;;;23.37;6.03;;;;;;;30.49;43.00;98438.06;5109880;28;20055;-93
2022/08/17 09:58:58;;;;;;;17.75;5.57;;;;;;;30.80;40.50;98423.53;5108361;28;20538;-93
2022/08/17 10:01:30;;;;;;;13.10;5.32;;;;;;;30.99;39.81;98431.38;5112060;28;20035;-93
2022/08/17 10:04:22;;;;;;;16.50;5.80;;;;;;;30.79;41.20;98441.88;5103869;28;20059;-92
2022/08/17 10:06:57;;;;;;;19.10;6.32;;;;;;;30.70;41.58;98442.97;5110433;27;20047;-92
2022/08/17 10:09:44;;;;;;;19.23;6.10;;;;;;;30.99;40.53;98423.13;5105659;28;20039;-93
2022/08/17 10:12:23;;;;;;;15.30;6.70;;;;;;;30.75;41.08;98428.69;5111304;28;20131;-94
2022/08/17 10:15:03;;;;;;;15.35;6.35;;;;;;;30.95;41.02;98431.88;5110136;28;20047;-95
2022/08/17 10:17:41;;;;;;;18.77;6.15;;;;;;;31.18;39.76;98441.00;5106891;28;20126;-93
2022/08/17 10:20:12;;;;;;;18.30;5.95;;;;;;;31.40;40.10;98435.72;5114040;27;20036;-92
2022/08/17 10:28:56;;;;;;;14.75;6.28;;;;;;;31.54;38.77;98448.72;5104004;27;20909;-92
2022/08/17 10:31:27;;;;;;;16.98;5.95;;;;;;;31.70;38.59;98448.56;5101758;28;20079;-91
2022/08/17 10:34:11;;;;;;;18.95;6.03;;;;;;;31.54;37.00;98423.97;5103875;28;20035;-92
2022/08/17 10:36:45;;;;;;;18.77;5.57;;;;;;;31.57;35.66;98439.25;5104958;28;20106;-93
2022/08/17 10:39:23;;;;;;;17.25;5.68;;;;;;;31.71;35.72;98443.94;5103373;28;20119;-89
2022/08/17 10:41:51;;;;;;;;;;;;;;;31.95;36.41;98437.38;5105350;28;20127;-89
2022/08/17 10:44:44;;;;;;;22.73;6.35;;;;;;;31.59;33.60;98421.53;5103667;28;19920;-90
2022/08/17 10:47:13;;;;;;;18.05;6.00;;;;;;;31.45;34.44;98434.19;5101519;28;20039;-90
2022/08/17 10:49:46;;;;;;;13.27;5.72;;;;;;;31.73;34.45;98442.72;5104404;28;20396;-90
2022/08/17 10:52:47;;;;;;;15.45;5.63;;;;;;;31.75;34.21;98422.41;5103043;28;20044;-91
2022/08/17 10:55:14;;;;;;;26.15;6.43;;;;;;;31.77;34.74;98421.19;5105579;28;20101;-91
2022/08/17 10:57:43;;;;;;;16.90;5.85;;;;;;;31.99;36.16;98429.59;5105010;28;20035;-90
2022/08/17 11:00:34;;;;;;;21.25;6.15;;;;;;;31.55;36.74;98424.81;5108132;28;20054;-91
2022/08/17 11:03:01;;;;;;;16.70;6.03;;;;;;;31.63;37.07;98422.88;5103532;28;20043;-91
2022/08/17 11:05:52;;;;;;;16.42;5.88;;;;;;;31.91;36.67;98433.28;5103542;28;20043;-91
2022/08/17 11:08:32;;;;;;;16.88;6.10;;;;;;;32.21;36.28;98436.97;5105824;28;20044;-92
2022/08/17 11:11:14;;;;;;;15.40;6.40;;;;;;;32.37;35.97;98432.31;5103873;28;20044;-91
2022/08/17 11:13:47;;;;;;;17.33;6.38;;;;;;;32.46;35.11;98418.25;5104388;28;20044;-91
2022/08/17 11:16:41;;;;;;;18.35;5.90;;;;;;;32.32;34.28;98405.38;5108503;28;20044;-90
2022/08/17 11:19:34;;;;;;;18.48;7.00;;;;;;;32.50;34.90;98418.75;5106054;28;20048;-91
2022/08/17 11:22:34;;;;;;;18.02;6.18;;;;;;;32.63;34.03;98409.84;5103079;28;20044;-91
2022/08/17 11:25:13;;;;;;;17.85;5.95;;;;;;;32.70;31.71;98419.91;5092313;28;20048;-92
2022/08/17 11:27:41;;;;;;;17.88;5.95;;;;;;;32.69;33.33;98423.69;5104169;28;20127;-91
2022/08/17 11:30:11;;;;;;;16.40;6.23;;;;;;;32.68;33.12;98422.00;5102453;28;20032;-91
2022/08/17 11:32:42;;;;;;;14.57;5.72;;;;;;;32.90;31.83;98419.28;5105000;28;20381;-90
2022/08/17 11:35:24;;;;;;;14.75;5.22;;;;;;;32.93;31.27;98419.75;5102406;28;20048;-91
2022/08/17 11:38:04;;;;;;;16.00;5.88;;;;;;;32.82;30.90;98412.00;5104728;28;20505;-90
2022/08/17 11:40:50;;;;;;;15.88;5.85;;;;;;;32.91;31.75;98413.59;5093207;28;20106;-92
2022/08/17 11:43:40;;;;;;;15.32;6.97;;;;;;;32.72;33.83;98395.75;5092250;28;20051;-91
2022/08/17 11:46:17;;;;;;;13.52;6.38;;;;;;;32.75;34.76;98408.31;5094177;28;20407;-93
2022/08/17 11:52:13;;;;;;;15.55;6.35;;;;;;;32.97;34.93;98408.38;5125086;27;1575924;-91
2022/08/17 11:54:44;;;;;;;16.42;6.45;;;;;;;33.04;36.43;98403.78;5155418;27;20503;-92
2022/08/17 11:57:48;;;;;;;15.95;6.90;;;;;;;33.07;35.52;98401.53;5159573;27;20046;-90
2022/08/17 12:00:45;;;;;;;20.55;7.13;;;;;;;33.16;34.65;98410.53;5145657;27;20043;-90
2022/08/17 12:03:43;;;;;;;14.38;6.25;;;;;;;32.72;35.31;98415.03;5158645;27;20039;-91
2022/08/17 12:06:30;;;;;;;16.60;6.68;;;;;;;32.62;36.28;98410.88;5074319;28;20044;-90
2022/08/17 12:09:05;;;;;;;15.13;6.57;;;;;;;32.88;35.78;98410.38;5062641;28;20052;-91
2022/08/17 12:11:40;;;;;;;22.45;7.70;;;;;;;33.05;36.10;98409.09;5072444;28;20072;-94
2022/08/17 12:14:07;;;;;;;16.38;6.57;;;;;;;33.19;36.65;98401.88;5073849;28;20104;-91